createdAt,value
2023-05-23T00:01:49.836Z,20.80
2023-05-23T00:04:19.096Z,20.88
2023-05-23T00:06:50.651Z,20.87
2023-05-23T00:09:19.833Z,20.58
2023-05-23T00:11:46.766Z,21.01
2023-05-23T00:14:17.144Z,20.45
2023-05-23T00:16:45.273Z,20.85
2023-05-23T00:19:15.196Z,20.08
2023-05-23T00:21:48.377Z,20.34
2023-05-23T00:24:18.921Z,20.48
2023-05-23T00:26:46.449Z,20.38
2023-05-23T00:29:16.977Z,20.19
2023-05-23T00:31:46.907Z,20.38
2023-05-23T00:34:15.099Z,20.00
2023-05-23T00:36:43.759Z,19.79
2023-05-23T00:39:19.245Z,19.40
2023-05-23T00:41:52.301Z,19.65
2023-05-23T00:44:20.569Z,20.22
2023-05-23T00:46:51.578Z,20.10
2023-05-23T00:49:20.430Z,20.37
2023-05-23T00:51:49.777Z,19.89
2023-05-23T00:54:20.155Z,20.46
2023-05-23T00:56:48.431Z,20.46
2023-05-23T00:59:16.671Z,19.97
2023-05-23T01:01:46.914Z,20.46
2023-05-23T01:04:17.058Z,20.41
2023-05-23T01:06:47.276Z,20.26
2023-05-23T01:09:16.102Z,20.67
2023-05-23T01:11:54.600Z,20.76
2023-05-23T01:14:26.961Z,21.04
2023-05-23T01:16:58.470Z,20.71
2023-05-23T01:19:38.463Z,20.59
2023-05-23T01:22:13.338Z,20.41
2023-05-23T01:24:56.141Z,20.09
2023-05-23T01:27:33.715Z,20.78
2023-05-23T01:30:02.314Z,20.22
2023-05-23T01:32:29.356Z,20.09
2023-05-23T01:34:56.939Z,20.90
2023-05-23T01:37:23.804Z,20.47
2023-05-23T01:39:50.990Z,20.59
2023-05-23T01:42:18.141Z,20.40
2023-05-23T01:44:45.690Z,20.73
2023-05-23T01:47:13.467Z,20.60
2023-05-23T01:49:41.379Z,20.65
2023-05-23T01:52:12.249Z,20.50
2023-05-23T01:54:42.676Z,20.49
2023-05-23T01:57:10.944Z,20.51
2023-05-23T01:59:38.741Z,20.15
2023-05-23T02:02:06.189Z,20.43
2023-05-23T02:04:33.154Z,20.01
2023-05-23T02:07:00.024Z,19.93
2023-05-23T02:09:26.889Z,19.94
2023-05-23T02:11:54.426Z,20.02
2023-05-23T02:14:21.670Z,20.73
2023-05-23T02:16:48.601Z,20.39
2023-05-23T02:19:15.563Z,20.21
2023-05-23T02:21:42.502Z,20.24
2023-05-23T02:24:09.370Z,20.02
2023-05-23T02:26:36.235Z,20.62
2023-05-23T02:29:09.086Z,20.64
2023-05-23T02:31:36.734Z,20.75
2023-05-23T02:34:03.668Z,20.76
2023-05-23T02:36:33.543Z,21.03
2023-05-23T02:39:00.456Z,20.61
2023-05-23T02:41:27.314Z,19.98
2023-05-23T02:43:54.994Z,19.95
2023-05-23T02:46:21.964Z,20.16
2023-05-23T02:48:48.880Z,19.80
2023-05-23T02:51:15.930Z,20.46
2023-05-23T02:53:42.850Z,20.27
2023-05-23T02:56:09.928Z,20.27
2023-05-23T02:58:37.162Z,20.92
2023-05-23T03:01:06.358Z,20.02
2023-05-23T03:03:34.981Z,20.81
2023-05-23T03:06:03.670Z,20.82
2023-05-23T03:08:30.823Z,20.59
2023-05-23T03:10:57.695Z,20.64
2023-05-23T03:13:24.561Z,20.49
2023-05-23T03:15:51.662Z,19.54
2023-05-23T03:18:18.619Z,19.37
2023-05-23T03:20:45.595Z,19.94
2023-05-23T03:23:12.456Z,19.69
2023-05-23T03:25:39.578Z,20.24
2023-05-23T03:28:06.630Z,20.03
2023-05-23T03:30:33.501Z,20.29
2023-05-23T03:33:00.476Z,20.32
2023-05-23T03:35:27.356Z,20.54
2023-05-23T03:37:54.247Z,20.09
2023-05-23T03:40:22.285Z,19.82
2023-05-23T03:42:49.994Z,20.06
2023-05-23T03:45:18.431Z,20.42
2023-05-23T03:47:45.507Z,20.79
2023-05-23T03:50:12.423Z,20.86
2023-05-23T03:52:39.354Z,21.06
2023-05-23T03:55:06.911Z,21.18
2023-05-23T03:57:33.774Z,21.95
2023-05-23T04:00:06.313Z,21.89
2023-05-23T04:02:33.203Z,22.63
2023-05-23T04:05:00.850Z,22.70
2023-05-23T04:07:27.762Z,23.35
2023-05-23T04:09:54.654Z,23.54
2023-05-23T04:12:22.335Z,24.19
2023-05-23T04:14:50.356Z,24.84
2023-05-23T04:17:17.292Z,25.25
2023-05-23T04:19:44.754Z,25.85
2023-05-23T04:22:11.667Z,26.48
2023-05-23T04:24:38.616Z,27.37
2023-05-23T04:27:05.975Z,27.90
2023-05-23T04:29:33.469Z,28.37
2023-05-23T04:32:01.096Z,28.93
2023-05-23T04:34:27.999Z,29.47
2023-05-23T04:36:55.001Z,30.19
2023-05-23T04:39:21.859Z,30.47
2023-05-23T04:41:50.254Z,30.57
2023-05-23T04:44:17.168Z,30.65
2023-05-23T04:46:45.782Z,31.27
2023-05-23T04:49:13.239Z,31.90
2023-05-23T04:51:40.114Z,32.27
2023-05-23T04:54:07.114Z,32.79
2023-05-23T04:56:33.970Z,33.16
2023-05-23T04:59:00.843Z,33.82
2023-05-23T05:01:28.297Z,34.20
2023-05-23T05:03:55.283Z,34.51
2023-05-23T05:06:23.394Z,35.16
2023-05-23T05:08:50.277Z,35.26
2023-05-23T05:11:17.199Z,35.92
2023-05-23T05:13:44.114Z,36.12
2023-05-23T05:16:11.148Z,35.80
2023-05-23T05:18:39.265Z,36.05
2023-05-23T05:21:06.659Z,36.18
2023-05-23T05:23:34.406Z,36.33
2023-05-23T05:26:01.337Z,36.46
2023-05-23T05:28:28.229Z,36.84
2023-05-23T05:30:55.243Z,37.11
2023-05-23T05:33:25.442Z,36.23
2023-05-23T05:35:52.536Z,36.22
2023-05-23T05:38:19.729Z,35.47
2023-05-23T05:40:46.726Z,35.70
2023-05-23T05:43:13.708Z,35.30
2023-05-23T05:45:40.999Z,35.14
2023-05-23T05:48:08.488Z,35.99
2023-05-23T05:50:35.379Z,36.44
2023-05-23T05:53:02.282Z,36.23
2023-05-23T05:55:29.270Z,36.27
2023-05-23T05:57:56.220Z,36.41
2023-05-23T06:00:30.500Z,35.27
2023-05-23T06:03:02.776Z,34.43
2023-05-23T06:05:30.177Z,34.66
2023-05-23T06:07:57.048Z,34.22
2023-05-23T06:10:24.823Z,34.12
2023-05-23T06:12:51.689Z,34.45
2023-05-23T06:15:19.238Z,34.97
2023-05-23T06:17:46.149Z,34.88
2023-05-23T06:20:13.309Z,34.51
2023-05-23T06:22:40.327Z,34.82
2023-05-23T06:25:07.868Z,34.70
2023-05-23T06:27:34.790Z,34.29
2023-05-23T06:30:01.638Z,34.30
2023-05-23T06:32:28.540Z,34.28
2023-05-23T06:34:55.495Z,34.30
2023-05-23T06:37:22.407Z,34.15
2023-05-23T06:39:49.769Z,34.12
2023-05-23T06:42:16.755Z,34.20
2023-05-23T06:44:43.619Z,33.63
2023-05-23T06:47:10.564Z,33.47
2023-05-23T06:49:37.478Z,33.51
2023-05-23T06:52:04.502Z,33.49
2023-05-23T06:54:31.445Z,33.84
2023-05-23T06:57:01.108Z,32.47
2023-05-23T06:59:29.044Z,32.40
2023-05-23T07:01:56.022Z,32.99
2023-05-23T07:04:22.890Z,33.25
2023-05-23T07:06:50.462Z,32.72
2023-05-23T07:09:17.615Z,32.59
2023-05-23T07:11:46.977Z,32.32
2023-05-23T07:14:13.969Z,32.59
2023-05-23T07:16:40.983Z,32.77
2023-05-23T07:19:08.059Z,32.68
2023-05-23T07:21:34.931Z,32.95
2023-05-23T07:24:02.268Z,33.08
2023-05-23T07:26:29.195Z,33.12
2023-05-23T07:28:56.123Z,33.14
2023-05-23T07:31:23.279Z,33.01
2023-05-23T07:33:50.269Z,32.89
2023-05-23T07:36:22.656Z,32.85
2023-05-23T07:38:49.654Z,32.52
2023-05-23T07:41:16.581Z,32.55
2023-05-23T07:43:43.461Z,32.77
2023-05-23T07:46:10.341Z,32.97
2023-05-23T07:48:37.308Z,33.14
2023-05-23T07:51:04.400Z,32.97
2023-05-23T07:53:31.330Z,32.95
2023-05-23T07:55:58.223Z,33.77
2023-05-23T07:58:27.169Z,33.03
2023-05-23T08:00:54.272Z,32.58
2023-05-23T08:03:21.405Z,32.32
2023-05-23T08:05:48.277Z,31.19
2023-05-23T08:08:15.134Z,31.72
2023-05-23T08:10:42.311Z,32.44
2023-05-23T08:13:10.357Z,32.99
2023-05-23T08:15:37.427Z,33.08
2023-05-23T08:18:05.395Z,32.63
2023-05-23T08:20:32.444Z,32.42
2023-05-23T08:23:02.655Z,31.98
2023-05-23T08:25:33.285Z,32.01
2023-05-23T08:28:01.421Z,32.01
2023-05-23T08:30:29.191Z,31.91
2023-05-23T08:32:57.219Z,30.90
2023-05-23T08:35:24.553Z,31.17
2023-05-23T08:37:52.561Z,30.93
2023-05-23T08:40:24.195Z,30.81
2023-05-23T08:42:51.628Z,30.72
2023-05-23T08:45:18.940Z,31.27
2023-05-23T08:47:47.016Z,31.75
2023-05-23T08:50:16.729Z,31.72
2023-05-23T08:52:51.014Z,32.32
2023-05-23T08:55:18.010Z,32.06
2023-05-23T08:57:45.816Z,31.89
2023-05-23T09:00:15.232Z,32.08
2023-05-23T09:02:44.288Z,32.07
2023-05-23T09:05:11.417Z,33.02
2023-05-23T09:07:38.972Z,32.82
2023-05-23T09:10:07.854Z,32.57
2023-05-23T09:12:37.355Z,32.39
2023-05-23T09:15:10.975Z,33.13
2023-05-23T09:17:40.711Z,33.02
2023-05-23T09:20:14.860Z,33.19
2023-05-23T09:22:46.453Z,33.18
2023-05-23T09:25:13.433Z,33.16
2023-05-23T09:27:40.534Z,32.76
2023-05-23T09:30:12.351Z,32.67
2023-05-23T09:32:39.757Z,32.67
2023-05-23T09:35:08.074Z,32.60
2023-05-23T09:37:36.834Z,32.55
2023-05-23T09:40:11.201Z,32.50
2023-05-23T09:42:46.139Z,32.55
2023-05-23T09:45:17.367Z,32.21
2023-05-23T09:47:53.971Z,32.49
2023-05-23T09:50:21.538Z,33.22
2023-05-23T09:52:48.684Z,32.57
2023-05-23T09:55:15.749Z,32.88
2023-05-23T09:57:44.109Z,32.96
2023-05-23T10:00:15.290Z,32.97
2023-05-23T10:03:00.587Z,33.37
2023-05-23T10:05:31.062Z,33.25
2023-05-23T10:08:01.445Z,33.19
2023-05-23T10:10:32.045Z,32.66
2023-05-23T10:13:01.969Z,32.49
2023-05-23T10:15:31.767Z,32.48
2023-05-23T10:18:18.766Z,32.42
2023-05-23T10:20:48.510Z,32.86
2023-05-23T10:23:16.252Z,32.90
2023-05-23T10:25:44.692Z,33.34
2023-05-23T10:28:12.620Z,32.78
2023-05-23T10:30:40.033Z,32.79
2023-05-23T10:33:09.058Z,33.03
2023-05-23T10:35:38.895Z,33.42
2023-05-23T10:38:19.021Z,33.41
2023-05-23T10:41:06.016Z,32.98
2023-05-23T10:43:48.128Z,32.81
2023-05-23T10:46:15.980Z,32.63
2023-05-23T10:48:44.360Z,32.16
2023-05-23T10:51:12.747Z,31.94
2023-05-23T10:53:41.949Z,33.05
2023-05-23T10:56:10.647Z,32.50
2023-05-23T10:58:39.826Z,33.40
2023-05-23T11:01:09.097Z,32.50
2023-05-23T11:03:46.838Z,32.29
2023-05-23T11:06:38.932Z,32.87
2023-05-23T11:09:07.937Z,33.18
2023-05-23T11:11:54.928Z,32.67
2023-05-23T11:14:40.958Z,33.09
2023-05-23T11:17:13.780Z,32.98
2023-05-23T11:19:41.754Z,33.60
2023-05-23T11:22:09.875Z,33.10
2023-05-23T11:24:53.013Z,32.81
2023-05-23T11:27:32.298Z,32.53
2023-05-23T11:30:00.728Z,33.03
2023-05-23T11:32:31.600Z,32.93
2023-05-23T11:35:02.747Z,32.55
2023-05-23T11:37:30.606Z,33.45
2023-05-23T11:39:58.128Z,33.51
2023-05-23T11:42:25.219Z,33.15
2023-05-23T11:44:53.026Z,33.19
2023-05-23T11:47:20.269Z,32.92
2023-05-23T11:49:47.552Z,32.40
2023-05-23T11:52:15.066Z,31.73
2023-05-23T11:54:44.864Z,31.78
2023-05-23T11:57:14.087Z,32.36
2023-05-23T11:59:41.056Z,32.43
2023-05-23T12:02:08.626Z,32.56
2023-05-23T12:04:37.370Z,32.37
2023-05-23T12:07:07.846Z,32.80
2023-05-23T12:09:44.649Z,32.01
2023-05-23T12:12:12.938Z,32.28
2023-05-23T12:14:44.926Z,33.12
2023-05-23T12:17:13.201Z,33.37
2023-05-23T12:19:41.102Z,33.09
2023-05-23T12:22:08.576Z,32.53
2023-05-23T12:24:35.593Z,32.61
2023-05-23T12:27:03.790Z,32.04
2023-05-23T12:29:34.779Z,31.59
2023-05-23T12:32:03.503Z,31.81
2023-05-23T12:34:30.428Z,32.40
2023-05-23T12:37:10.295Z,32.06
2023-05-23T12:39:45.549Z,31.90
2023-05-23T12:42:12.750Z,31.74
2023-05-23T12:44:41.885Z,31.86
2023-05-23T12:47:08.813Z,31.74
2023-05-23T12:49:37.324Z,31.84
2023-05-23T12:52:04.237Z,32.34
2023-05-23T12:54:31.200Z,32.42
2023-05-23T12:56:58.105Z,32.40
2023-05-23T12:59:27.334Z,32.20
2023-05-23T13:01:55.878Z,32.48
2023-05-23T13:04:22.855Z,32.96
2023-05-23T13:06:49.816Z,32.77
2023-05-23T13:09:18.077Z,33.16
2023-05-23T13:11:45.063Z,33.29
2023-05-23T13:14:13.810Z,32.65
2023-05-23T13:16:41.028Z,32.79
2023-05-23T13:19:07.968Z,32.05
2023-05-23T13:21:34.907Z,31.61
2023-05-23T13:24:01.803Z,31.85
2023-05-23T13:26:28.996Z,31.86
2023-05-23T13:28:55.935Z,31.67
2023-05-23T13:31:22.888Z,31.62
2023-05-23T13:33:49.822Z,31.66
2023-05-23T13:36:16.752Z,31.89
2023-05-23T13:38:43.675Z,32.11
2023-05-23T13:41:10.684Z,31.87
2023-05-23T13:43:37.655Z,31.82
2023-05-23T13:46:04.652Z,31.72
2023-05-23T13:48:31.747Z,31.77
2023-05-23T13:50:59.098Z,31.85
2023-05-23T13:53:26.208Z,31.73
2023-05-23T13:55:53.417Z,31.12
2023-05-23T13:58:20.713Z,30.92
2023-05-23T14:00:47.800Z,30.76
2023-05-23T14:03:15.884Z,30.71
2023-05-23T14:05:42.945Z,30.82
2023-05-23T14:08:11.472Z,31.00
2023-05-23T14:10:38.475Z,31.05
2023-05-23T14:13:07.058Z,30.47
2023-05-23T14:15:34.913Z,30.53
2023-05-23T14:18:02.252Z,31.14
2023-05-23T14:20:30.071Z,31.36
2023-05-23T14:22:57.175Z,31.38
2023-05-23T14:25:24.067Z,31.71
2023-05-23T14:27:50.921Z,31.35
2023-05-23T14:30:17.902Z,31.57
2023-05-23T14:32:44.889Z,31.85
2023-05-23T14:35:12.199Z,31.31
2023-05-23T14:37:39.456Z,31.32
2023-05-23T14:40:10.204Z,31.01
2023-05-23T14:42:37.256Z,31.28
2023-05-23T14:45:05.045Z,31.54
2023-05-23T14:47:32.741Z,31.12
2023-05-23T14:49:59.668Z,30.95
2023-05-23T14:52:26.957Z,31.21
2023-05-23T14:54:53.902Z,31.72
2023-05-23T14:57:20.876Z,31.64
2023-05-23T14:59:47.909Z,31.17
2023-05-23T15:02:14.800Z,31.23
2023-05-23T15:04:41.995Z,30.88
2023-05-23T15:07:09.089Z,30.96
2023-05-23T15:09:36.624Z,30.91
2023-05-23T15:12:05.422Z,30.78
2023-05-23T15:14:32.381Z,31.01
2023-05-23T15:17:07.814Z,31.22
2023-05-23T15:19:36.485Z,31.18
2023-05-23T15:22:05.379Z,31.07
2023-05-23T15:24:32.446Z,30.84
2023-05-23T15:27:11.671Z,30.89
2023-05-23T15:29:47.011Z,30.45
2023-05-23T15:32:14.169Z,30.60
2023-05-23T15:34:41.143Z,30.08
2023-05-23T15:37:08.066Z,30.35
2023-05-23T15:39:35.136Z,30.28
2023-05-23T15:42:02.198Z,30.31
2023-05-23T15:44:29.139Z,30.60
2023-05-23T15:46:56.235Z,30.16
2023-05-23T15:49:26.384Z,30.36
2023-05-23T15:51:55.442Z,30.68
2023-05-23T15:54:22.728Z,29.94
2023-05-23T15:56:49.655Z,29.51
2023-05-23T15:59:16.531Z,29.62
2023-05-23T16:01:43.515Z,29.44
2023-05-23T16:04:10.507Z,29.85
2023-05-23T16:06:38.453Z,29.33
2023-05-23T16:09:06.425Z,29.36
2023-05-23T16:11:33.331Z,28.97
2023-05-23T16:14:00.225Z,28.53
2023-05-23T16:16:27.162Z,28.24
2023-05-23T16:18:54.148Z,28.12
2023-05-23T16:21:21.159Z,28.39
2023-05-23T16:23:51.136Z,28.47
2023-05-23T16:26:19.120Z,28.44
2023-05-23T16:28:46.060Z,28.60
2023-05-23T16:31:14.698Z,28.73
2023-05-23T16:33:41.663Z,29.07
2023-05-23T16:36:08.629Z,29.01
2023-05-23T16:38:35.596Z,29.16
2023-05-23T16:41:02.506Z,29.15
2023-05-23T16:43:29.424Z,29.06
2023-05-23T16:45:56.405Z,28.46
2023-05-23T16:48:23.351Z,27.92
2023-05-23T16:50:50.247Z,27.06
2023-05-23T16:53:17.148Z,26.72
2023-05-23T16:55:44.245Z,26.40
2023-05-23T16:58:12.391Z,26.51
2023-05-23T17:00:39.792Z,25.98
2023-05-23T17:03:07.027Z,25.31
2023-05-23T17:05:34.601Z,24.66
2023-05-23T17:08:02.081Z,25.09
2023-05-23T17:10:29.124Z,24.63
2023-05-23T17:12:56.092Z,23.92
2023-05-23T17:15:23.041Z,23.44
2023-05-23T17:17:50.014Z,22.83
2023-05-23T17:20:17.032Z,23.05
2023-05-23T17:22:43.969Z,22.81
2023-05-23T17:25:11.088Z,22.57
2023-05-23T17:27:37.954Z,22.59
2023-05-23T17:30:05.741Z,22.28
2023-05-23T17:32:32.696Z,22.11
2023-05-23T17:34:59.782Z,22.53
2023-05-23T17:37:26.698Z,21.71
2023-05-23T17:39:56.773Z,21.66
2023-05-23T17:42:25.089Z,22.01
2023-05-23T17:44:51.960Z,21.84
2023-05-23T17:47:19.053Z,21.20
2023-05-23T17:49:45.970Z,21.08
2023-05-23T17:52:15.102Z,20.82
2023-05-23T17:54:42.391Z,20.98
2023-05-23T17:57:09.376Z,21.11
2023-05-23T17:59:36.530Z,20.45
2023-05-23T18:02:04.936Z,20.47
2023-05-23T18:04:31.983Z,20.79
2023-05-23T18:06:58.997Z,20.71
2023-05-23T18:09:25.877Z,20.86
2023-05-23T18:11:52.931Z,20.38
2023-05-23T18:14:19.909Z,20.57
2023-05-23T18:16:46.846Z,20.07
2023-05-23T18:19:13.894Z,20.39
2023-05-23T18:21:41.005Z,20.58
2023-05-23T18:24:09.159Z,20.53
2023-05-23T18:26:40.339Z,20.64
2023-05-23T18:29:07.251Z,20.71
2023-05-23T18:31:34.110Z,20.61
2023-05-23T18:34:01.263Z,20.78
2023-05-23T18:36:28.181Z,21.13
2023-05-23T18:38:55.113Z,21.46
2023-05-23T18:41:22.566Z,21.75
2023-05-23T18:43:50.120Z,21.43
2023-05-23T18:46:17.365Z,21.25
2023-05-23T18:48:44.338Z,21.86
2023-05-23T18:51:12.511Z,21.39
2023-05-23T18:53:42.206Z,21.41
2023-05-23T18:56:09.572Z,22.09
2023-05-23T18:58:36.459Z,22.19
2023-05-23T19:01:04.084Z,23.90
2023-05-23T19:03:32.235Z,23.79
2023-05-23T19:06:02.300Z,24.56
2023-05-23T19:08:32.903Z,24.40
2023-05-23T19:11:00.508Z,25.23
2023-05-23T19:13:27.765Z,24.68
2023-05-23T19:15:54.719Z,24.53
2023-05-23T19:18:21.634Z,25.21
2023-05-23T19:20:51.671Z,24.50
2023-05-23T19:23:21.097Z,24.78
2023-05-23T19:25:48.060Z,24.38
2023-05-23T19:28:17.750Z,24.60
2023-05-23T19:30:44.866Z,24.08
2023-05-23T19:33:11.968Z,23.36
2023-05-23T19:35:39.085Z,23.80
2023-05-23T19:38:05.984Z,23.52
2023-05-23T19:40:32.904Z,22.81
2023-05-23T19:42:59.821Z,22.09
2023-05-23T19:45:27.063Z,22.45
2023-05-23T19:47:54.026Z,22.10
2023-05-23T19:50:22.221Z,22.27
2023-05-23T19:52:49.118Z,22.07
2023-05-23T19:55:16.131Z,23.02
2023-05-23T19:57:43.035Z,23.98
2023-05-23T20:00:10.640Z,23.97
2023-05-23T20:02:37.655Z,24.01
2023-05-23T20:05:05.666Z,23.43
2023-05-23T20:07:32.544Z,21.58
2023-05-23T20:09:59.501Z,21.15
2023-05-23T20:12:26.876Z,21.04
2023-05-23T20:14:53.801Z,20.85
2023-05-23T20:17:20.838Z,21.31
2023-05-23T20:19:47.832Z,20.50
2023-05-23T20:22:14.841Z,21.26
2023-05-23T20:24:41.739Z,20.96
2023-05-23T20:27:08.627Z,20.62
2023-05-23T20:29:35.579Z,20.49
2023-05-23T20:32:02.477Z,21.45
2023-05-23T20:34:29.451Z,21.00
2023-05-23T20:36:57.672Z,20.72
2023-05-23T20:39:24.592Z,21.37
2023-05-23T20:41:51.512Z,21.29
2023-05-23T20:44:18.538Z,21.80
2023-05-23T20:46:45.671Z,22.52
2023-05-23T20:49:12.636Z,23.71
2023-05-23T20:51:39.532Z,24.24
2023-05-23T20:54:07.255Z,23.98
2023-05-23T20:56:34.222Z,24.28
2023-05-23T20:59:01.228Z,23.80
2023-05-23T21:01:28.730Z,23.98
2023-05-23T21:03:56.137Z,24.14
2023-05-23T21:06:23.217Z,23.64
2023-05-23T21:08:50.116Z,23.45
2023-05-23T21:11:17.021Z,23.23
2023-05-23T21:13:44.000Z,23.08
2023-05-23T21:16:14.645Z,22.81
2023-05-23T21:18:41.817Z,23.25
2023-05-23T21:21:08.764Z,22.93
2023-05-23T21:23:35.671Z,22.17
2023-05-23T21:26:02.932Z,22.68
2023-05-23T21:28:29.845Z,22.85
2023-05-23T21:30:57.210Z,22.46
2023-05-23T21:33:24.189Z,22.56
2023-05-23T21:35:51.422Z,23.27
2023-05-23T21:38:18.314Z,23.97
2023-05-23T21:40:45.282Z,24.07
2023-05-23T21:43:12.202Z,23.48
2023-05-23T21:45:39.099Z,23.16
2023-05-23T21:48:06.195Z,23.77
2023-05-23T21:50:33.135Z,23.31
2023-05-23T21:53:00.037Z,22.73
2023-05-23T21:55:27.464Z,22.45
2023-05-23T21:57:54.368Z,22.80
2023-05-23T22:00:22.844Z,23.56
2023-05-23T22:02:49.883Z,24.22
2023-05-23T22:05:17.306Z,24.08
2023-05-23T22:07:44.192Z,23.88
2023-05-23T22:10:11.456Z,23.03
2023-05-23T22:12:38.921Z,23.67
2023-05-23T22:15:07.445Z,23.31
2023-05-23T22:17:34.788Z,23.54
2023-05-23T22:20:02.494Z,24.44
2023-05-23T22:22:29.382Z,23.38
2023-05-23T22:24:56.416Z,24.91
2023-05-23T22:27:23.391Z,24.85
2023-05-23T22:29:50.385Z,24.83
2023-05-23T22:32:17.299Z,24.69
2023-05-23T22:34:45.615Z,24.75
2023-05-23T22:37:12.540Z,24.24
2023-05-23T22:39:39.396Z,24.23
2023-05-23T22:42:06.521Z,24.94
2023-05-23T22:44:33.549Z,25.17
2023-05-23T22:47:00.484Z,24.43
2023-05-23T22:49:30.217Z,24.16
2023-05-23T22:51:57.924Z,23.57
2023-05-23T22:54:24.878Z,23.92
2023-05-23T22:56:51.851Z,24.80
2023-05-23T22:59:18.745Z,24.95
2023-05-23T23:01:46.569Z,25.62
2023-05-23T23:04:13.470Z,25.27
2023-05-23T23:06:43.424Z,24.60
2023-05-23T23:09:10.409Z,25.01
2023-05-23T23:11:37.306Z,25.25
2023-05-23T23:14:04.185Z,25.32
2023-05-23T23:16:31.166Z,24.71
2023-05-23T23:18:58.955Z,24.47
2023-05-23T23:21:26.007Z,24.99
2023-05-23T23:23:52.894Z,24.92
2023-05-23T23:26:19.849Z,24.69
2023-05-23T23:28:46.761Z,24.82
2023-05-23T23:31:13.722Z,24.35
2023-05-23T23:33:40.840Z,24.22
2023-05-23T23:36:07.931Z,24.60
2023-05-23T23:38:34.820Z,25.20
2023-05-23T23:41:01.686Z,24.48
2023-05-23T23:43:28.612Z,23.84
2023-05-23T23:45:55.576Z,24.18
2023-05-23T23:48:22.527Z,24.10
2023-05-23T23:50:49.454Z,24.34
2023-05-23T23:53:17.021Z,23.97
2023-05-23T23:55:43.890Z,24.17
2023-05-23T23:58:10.758Z,23.74
